createdAt,value
2018-05-17T00:00:08.267Z,12.07
2018-05-17T00:02:37.327Z,12.77
2018-05-17T00:05:04.959Z,11.77
2018-05-17T00:07:34.903Z,13.68
2018-05-17T00:10:03.955Z,11.90
2018-05-17T00:12:31.489Z,12.05
2018-05-17T00:15:01.592Z,10.48
2018-05-17T00:17:29.197Z,10.48
2018-05-17T00:19:57.640Z,10.20
2018-05-17T00:22:26.423Z,11.20
2018-05-17T00:24:54.086Z,14.30
2018-05-17T00:27:22.274Z,12.23
2018-05-17T00:29:49.861Z,10.75
2018-05-17T00:32:18.852Z,10.68
2018-05-17T00:34:47.368Z,11.00
2018-05-17T00:37:15.032Z,10.93
2018-05-17T00:39:42.724Z,9.70
2018-05-17T00:42:11.040Z,11.68
2018-05-17T00:44:38.964Z,11.65
2018-05-17T00:47:06.531Z,11.32
2018-05-17T00:49:34.170Z,11.10
2018-05-17T00:52:01.722Z,10.38
2018-05-17T00:54:29.248Z,9.77
2018-05-17T00:56:56.958Z,9.85
2018-05-17T00:59:25.802Z,11.65
2018-05-17T01:01:53.440Z,12.23
2018-05-17T01:04:21.062Z,12.05
2018-05-17T01:06:49.246Z,11.63
2018-05-17T01:09:17.639Z,10.60
2018-05-17T01:11:46.789Z,10.65
2018-05-17T01:14:15.323Z,10.73
2018-05-17T01:16:42.904Z,11.12
2018-05-17T01:19:11.337Z,13.30
2018-05-17T01:21:38.848Z,10.15
2018-05-17T01:24:09.620Z,10.52
2018-05-17T01:26:37.180Z,11.85
2018-05-17T01:29:04.700Z,10.57
2018-05-17T01:31:35.312Z,9.70
2018-05-17T01:34:02.899Z,10.40
2018-05-17T01:36:30.412Z,10.00
2018-05-17T01:38:59.841Z,10.87
2018-05-17T01:41:28.036Z,9.23
2018-05-17T01:43:55.586Z,10.70
2018-05-17T01:46:25.728Z,9.35
2018-05-17T01:48:53.308Z,10.30
2018-05-17T01:51:20.847Z,8.47
2018-05-17T01:53:48.424Z,11.10
2018-05-17T01:56:16.663Z,10.13
2018-05-17T01:58:46.782Z,8.57
2018-05-17T02:01:15.061Z,8.07
2018-05-17T02:03:43.500Z,8.13
2018-05-17T02:06:11.019Z,8.68
2018-05-17T02:08:38.549Z,8.40
2018-05-17T02:11:08.073Z,8.30
2018-05-17T02:13:36.371Z,7.18
2018-05-17T02:16:05.098Z,7.95
2018-05-17T02:18:32.666Z,6.53
2018-05-17T02:21:01.008Z,6.93
2018-05-17T02:23:28.564Z,7.53
2018-05-17T02:25:56.122Z,8.05
2018-05-17T02:28:23.698Z,6.35
2018-05-17T02:30:51.232Z,6.97
2018-05-17T02:33:18.740Z,6.85
2018-05-17T02:35:46.272Z,7.18
2018-05-17T02:38:16.297Z,7.20
2018-05-17T02:40:43.867Z,6.35
2018-05-17T02:43:11.403Z,6.60
2018-05-17T02:45:38.964Z,6.32
2018-05-17T02:48:07.265Z,5.93
2018-05-17T02:50:34.823Z,6.10
2018-05-17T02:53:03.252Z,6.12
2018-05-17T02:55:30.780Z,6.22
2018-05-17T02:57:58.287Z,5.35
2018-05-17T03:00:25.821Z,5.47
2018-05-17T03:02:53.342Z,6.40
2018-05-17T03:05:21.803Z,5.95
2018-05-17T03:07:50.779Z,5.32
2018-05-17T03:10:18.502Z,6.25
2018-05-17T03:12:46.106Z,6.40
2018-05-17T03:15:13.752Z,6.32
2018-05-17T03:17:41.297Z,6.37
2018-05-17T03:20:08.812Z,6.68
2018-05-17T03:22:36.962Z,6.10
2018-05-17T03:25:04.467Z,5.28
2018-05-17T03:27:31.979Z,6.43
2018-05-17T03:29:59.527Z,6.00
2018-05-17T03:32:28.135Z,7.53
2018-05-17T03:34:55.824Z,6.15
2018-05-17T03:37:24.062Z,6.32
2018-05-17T03:39:52.467Z,7.10
2018-05-17T03:42:19.979Z,5.78
2018-05-17T03:44:47.498Z,6.50
2018-05-17T03:47:15.030Z,7.35
2018-05-17T03:49:42.572Z,6.40
2018-05-17T03:52:10.076Z,7.12
2018-05-17T03:54:37.607Z,8.43
2018-05-17T03:57:05.148Z,9.13
2018-05-17T03:59:32.839Z,6.70
2018-05-17T04:02:12.440Z,7.75
2018-05-17T04:04:51.909Z,7.25
2018-05-17T04:07:19.430Z,7.28
2018-05-17T04:09:46.979Z,8.65
2018-05-17T04:12:14.677Z,7.43
2018-05-17T04:14:42.225Z,9.20
2018-05-17T04:17:09.756Z,7.32
2018-05-17T04:19:38.043Z,8.93
2018-05-17T04:22:06.670Z,9.02
2018-05-17T04:24:34.347Z,7.68
2018-05-17T04:27:02.732Z,10.25
2018-05-17T04:29:30.262Z,8.05
2018-05-17T04:31:58.930Z,8.77
2018-05-17T04:34:26.406Z,9.82
2018-05-17T04:36:53.943Z,8.25
2018-05-17T04:39:21.637Z,8.35
2018-05-17T04:41:49.900Z,8.80
2018-05-17T04:44:17.615Z,9.63
2018-05-17T04:46:46.515Z,8.80
2018-05-17T04:49:14.804Z,8.02
2018-05-17T04:51:43.193Z,8.88
2018-05-17T04:54:10.730Z,8.02
2018-05-17T04:56:39.040Z,9.88
2018-05-17T04:59:06.560Z,9.27
2018-05-17T05:01:34.069Z,8.20
2018-05-17T05:04:01.690Z,8.05
2018-05-17T05:06:29.247Z,9.00
2018-05-17T05:08:56.765Z,10.65
2018-05-17T05:11:24.407Z,8.73
2018-05-17T05:13:52.055Z,9.65
2018-05-17T05:16:19.631Z,9.15
2018-05-17T05:18:47.156Z,9.07
2018-05-17T05:21:15.935Z,9.52
2018-05-17T05:23:43.746Z,10.05
2018-05-17T05:26:11.575Z,8.75
2018-05-17T05:28:39.154Z,9.65
2018-05-17T05:31:06.697Z,11.05
2018-05-17T05:33:34.975Z,9.68
2018-05-17T05:36:02.623Z,10.10
2018-05-17T05:38:30.133Z,9.65
2018-05-17T05:40:57.727Z,10.55
2018-05-17T05:43:27.254Z,9.98
2018-05-17T05:45:55.065Z,11.48
2018-05-17T05:48:22.595Z,9.80
2018-05-17T05:50:50.312Z,10.38
2018-05-17T05:53:18.214Z,9.40
2018-05-17T05:55:46.589Z,9.60
2018-05-17T05:58:15.532Z,8.05
2018-05-17T06:00:43.365Z,8.38
2018-05-17T06:03:10.885Z,9.40
2018-05-17T06:05:39.016Z,8.23
2018-05-17T06:08:08.327Z,8.32
2018-05-17T06:10:36.732Z,9.07
2018-05-17T06:13:04.323Z,8.18
2018-05-17T06:15:32.702Z,6.97
2018-05-17T06:18:01.365Z,7.37
2018-05-17T06:20:29.731Z,6.45
2018-05-17T06:22:57.843Z,6.15
2018-05-17T06:25:26.756Z,6.97
2018-05-17T06:27:54.377Z,4.95
2018-05-17T06:30:22.137Z,6.45
2018-05-17T06:32:49.819Z,6.28
2018-05-17T06:35:18.423Z,5.97
2018-05-17T06:37:47.001Z,5.90
2018-05-17T06:40:14.687Z,5.80
2018-05-17T06:42:42.213Z,6.30
2018-05-17T06:45:10.540Z,6.30
2018-05-17T06:47:38.062Z,6.87
2018-05-17T06:50:08.239Z,6.82
2018-05-17T06:52:35.771Z,6.50
2018-05-17T06:55:03.291Z,4.90
2018-05-17T06:57:31.627Z,5.67
2018-05-17T06:59:59.175Z,6.63
2018-05-17T07:02:26.675Z,8.70
2018-05-17T07:04:55.317Z,6.67
2018-05-17T07:07:23.595Z,7.20
2018-05-17T07:09:51.753Z,6.65
2018-05-17T07:12:19.281Z,5.20
2018-05-17T07:14:46.844Z,6.10
2018-05-17T07:17:14.368Z,5.70
2018-05-17T07:19:41.891Z,6.40
2018-05-17T07:22:09.443Z,6.70
2018-05-17T07:24:37.843Z,6.62
2018-05-17T07:27:05.400Z,8.20
2018-05-17T07:29:33.777Z,6.55
2018-05-17T07:32:01.290Z,6.97
2018-05-17T07:34:29.652Z,7.33
2018-05-17T07:36:57.201Z,7.07
2018-05-17T07:39:24.727Z,6.50
2018-05-17T07:41:52.975Z,6.37
2018-05-17T07:44:21.316Z,5.80
2018-05-17T07:46:48.893Z,6.82
2018-05-17T07:49:16.375Z,7.55
2018-05-17T07:51:44.492Z,5.53
2018-05-17T07:54:12.015Z,7.90
2018-05-17T07:56:39.547Z,6.00
2018-05-17T07:59:08.524Z,5.33
2018-05-17T08:01:36.071Z,7.40
2018-05-17T08:04:03.588Z,6.65
2018-05-17T08:06:31.116Z,7.67
2018-05-17T08:09:00.016Z,5.77
2018-05-17T08:11:28.292Z,6.40
2018-05-17T08:13:56.567Z,6.87
2018-05-17T08:16:24.868Z,6.07
2018-05-17T08:18:52.652Z,5.10
2018-05-17T08:21:20.147Z,7.00
2018-05-17T08:23:47.684Z,7.00
2018-05-17T08:26:15.203Z,6.07
2018-05-17T08:28:42.736Z,6.13
2018-05-17T08:31:11.052Z,6.77
2018-05-17T08:33:38.571Z,6.87
2018-05-17T08:36:06.933Z,6.27
2018-05-17T08:38:34.425Z,5.07
2018-05-17T08:41:02.699Z,5.00
2018-05-17T08:43:30.967Z,5.30
2018-05-17T08:45:59.255Z,6.45
2018-05-17T08:48:27.519Z,5.60
2018-05-17T08:50:55.799Z,5.27
2018-05-17T08:53:24.084Z,5.43
2018-05-17T09:20:26.247Z,6.20
2018-05-17T09:22:54.448Z,6.60
2018-05-17T09:25:23.460Z,5.47
2018-05-17T09:27:54.753Z,5.20
2018-05-17T09:30:22.915Z,6.90
2018-05-17T09:32:51.521Z,6.70
2018-05-17T09:35:19.181Z,6.70
2018-05-17T09:37:47.419Z,7.10
2018-05-17T09:40:16.403Z,5.80
2018-05-17T10:42:01.675Z,7.60
2018-05-17T11:09:10.344Z,6.60
2018-05-17T11:11:37.945Z,6.35
2018-05-17T11:16:32.783Z,6.63
2018-05-17T11:31:16.432Z,6.33
2018-05-17T11:36:12.980Z,5.75
2018-05-17T11:48:35.109Z,5.87
2018-05-17T11:55:59.335Z,5.53
2018-05-17T11:58:27.632Z,6.30
2018-05-17T12:03:23.260Z,6.50
2018-05-17T12:15:45.694Z,6.90
2018-05-17T12:28:06.343Z,5.40
2018-05-17T12:30:33.880Z,6.05
2018-05-17T12:33:02.822Z,6.43
2018-05-17T12:37:58.359Z,6.10
2018-05-17T12:40:25.947Z,6.77
2018-05-17T12:42:53.660Z,6.20
2018-05-17T12:52:46.297Z,5.53
2018-05-17T12:55:13.866Z,6.83
2018-05-17T12:57:41.636Z,6.10
2018-05-17T13:00:09.294Z,6.20
2018-05-17T13:02:36.971Z,5.40
2018-05-17T13:05:05.571Z,5.90
2018-05-17T13:10:00.436Z,6.20
2018-05-17T13:12:28.274Z,5.93
2018-05-17T13:14:55.871Z,5.40
2018-05-17T13:17:24.349Z,6.33
2018-05-17T13:19:51.950Z,5.93
2018-05-17T13:22:19.510Z,5.50
2018-05-17T13:54:24.980Z,5.17
2018-05-17T13:59:20.334Z,6.93
2018-05-17T14:01:48.078Z,5.35
2018-05-17T14:04:15.671Z,5.47
2018-05-17T14:09:13.122Z,6.20
2018-05-17T14:11:40.917Z,5.87
2018-05-17T14:33:47.395Z,6.77
2018-05-17T14:36:14.925Z,5.63
2018-05-17T14:38:42.471Z,5.83
2018-05-17T14:41:10.924Z,11.03
2018-05-17T14:43:38.552Z,8.47
2018-05-17T14:46:06.276Z,6.97
2018-05-17T14:48:34.718Z,6.20
2018-05-17T14:51:02.333Z,4.53
2018-05-17T14:53:29.875Z,6.03
2018-05-17T14:55:57.436Z,5.60
2018-05-17T14:58:25.053Z,6.00
2018-05-17T15:00:52.633Z,6.20
2018-05-17T15:03:24.153Z,5.90
2018-05-17T15:05:53.185Z,6.27
2018-05-17T15:08:21.863Z,6.13
2018-05-17T15:10:52.482Z,6.20
2018-05-17T15:13:21.983Z,5.77
2018-05-17T15:15:51.261Z,6.60
2018-05-17T15:18:19.154Z,5.70
2018-05-17T15:20:47.776Z,6.37
2018-05-17T15:23:19.987Z,5.50
2018-05-17T15:25:47.976Z,6.03
2018-05-17T15:28:17.438Z,6.33
2018-05-17T15:30:45.163Z,6.60
2018-05-17T15:33:13.686Z,5.80
2018-05-17T15:35:41.337Z,8.10
2018-05-17T15:38:09.490Z,7.20
2018-05-17T15:40:38.271Z,5.70
2018-05-17T15:43:05.876Z,5.80
2018-05-17T15:45:33.711Z,5.77
2018-05-17T15:48:02.325Z,5.30
2018-05-17T15:50:29.989Z,4.97
2018-05-17T15:52:57.876Z,5.63
2018-05-17T15:55:25.521Z,5.00
2018-05-17T15:57:53.496Z,5.10
2018-05-17T16:00:25.821Z,5.33
2018-05-17T16:02:54.878Z,5.17
2018-05-17T16:05:25.549Z,6.60
2018-05-17T16:07:54.939Z,5.63
2018-05-17T16:10:24.580Z,7.57
2018-05-17T16:12:53.258Z,4.83
2018-05-17T16:15:23.925Z,13.70
2018-05-17T16:17:52.401Z,5.27
2018-05-17T16:20:21.017Z,6.27
2018-05-17T16:22:51.581Z,4.63
2018-05-17T16:25:19.935Z,5.70
2018-05-17T16:27:48.896Z,5.90
2018-05-17T16:30:16.753Z,5.00
2018-05-17T16:32:45.714Z,5.10
2018-05-17T16:35:14.640Z,5.23
2018-05-17T16:37:43.046Z,5.07
2018-05-17T16:40:12.063Z,5.30
2018-05-17T16:42:40.321Z,6.53
2018-05-17T16:45:09.117Z,5.70
2018-05-17T16:47:37.524Z,5.30
2018-05-17T16:50:05.998Z,5.90
2018-05-17T16:52:34.626Z,6.00
2018-05-17T16:55:02.353Z,4.47
2018-05-17T16:57:29.988Z,5.03
2018-05-17T16:59:57.709Z,4.60
2018-05-17T17:02:25.666Z,5.30
2018-05-17T17:04:53.681Z,5.10
2018-05-17T17:07:22.041Z,5.73
2018-05-17T17:09:49.607Z,4.60
2018-05-17T17:12:17.267Z,5.40
2018-05-17T17:14:45.046Z,4.53
2018-05-17T17:17:12.670Z,4.60
2018-05-17T17:19:40.376Z,4.13
2018-05-17T17:22:08.041Z,5.07
2018-05-17T17:24:35.764Z,4.70
2018-05-17T17:27:04.164Z,5.10
2018-05-17T17:29:31.716Z,4.93
2018-05-17T17:31:59.365Z,5.30
2018-05-17T17:34:27.048Z,4.50
2018-05-17T17:36:54.703Z,4.30
2018-05-17T17:39:22.281Z,4.77
2018-05-17T17:41:49.981Z,5.00
2018-05-17T17:44:19.323Z,4.43
2018-05-17T17:46:47.614Z,5.60
2018-05-17T17:49:16.237Z,4.20
2018-05-17T17:51:43.986Z,4.97
2018-05-17T17:54:12.437Z,5.07
2018-05-17T17:56:40.904Z,5.40
2018-05-17T17:59:08.599Z,5.30
2018-05-17T18:01:36.292Z,4.87
2018-05-17T18:04:04.020Z,5.50
2018-05-17T18:06:31.702Z,6.13
2018-05-17T18:09:00.138Z,5.80
2018-05-17T18:11:27.860Z,4.77
2018-05-17T18:13:56.189Z,4.33
2018-05-17T18:16:24.765Z,4.37
2018-05-17T18:18:52.538Z,4.97
2018-05-17T18:21:20.163Z,4.37
2018-05-17T18:23:47.779Z,4.53
2018-05-17T18:26:15.393Z,5.30
2018-05-17T18:28:43.774Z,4.90
2018-05-17T18:31:12.133Z,4.63
2018-05-17T18:33:41.353Z,4.10
2018-05-17T18:36:09.755Z,4.73
2018-05-17T18:38:38.578Z,4.20
2018-05-17T18:41:06.947Z,4.83
2018-05-17T18:43:35.150Z,5.10
2018-05-17T18:46:02.773Z,4.15
2018-05-17T18:48:31.322Z,5.12
2018-05-17T18:50:58.962Z,6.15
2018-05-17T18:53:26.516Z,4.80
2018-05-17T18:55:55.074Z,4.23
2018-05-17T18:58:22.601Z,4.68
2018-05-17T19:00:50.221Z,5.78
2018-05-17T19:03:17.908Z,4.80
2018-05-17T19:05:45.638Z,4.62
2018-05-17T19:08:13.342Z,4.80
2018-05-17T19:10:40.940Z,3.87
2018-05-17T19:13:08.488Z,5.30
2018-05-17T19:15:36.104Z,5.90
2018-05-17T19:18:03.834Z,4.90
2018-05-17T19:20:32.279Z,5.00
2018-05-17T19:23:00.798Z,5.07
2018-05-17T19:25:29.203Z,5.12
2018-05-17T19:27:56.828Z,4.95
2018-05-17T19:30:24.505Z,4.78
2018-05-17T19:32:52.105Z,5.30
2018-05-17T19:35:19.766Z,4.70
2018-05-17T19:37:47.518Z,4.37
2018-05-17T19:40:15.118Z,5.43
2018-05-17T19:42:42.741Z,5.70
2018-05-17T19:45:10.364Z,5.32
2018-05-17T19:47:37.928Z,5.65
2018-05-17T19:50:25.199Z,5.90
2018-05-17T19:52:52.889Z,4.90
2018-05-17T19:55:20.646Z,4.68
2018-05-17T19:57:48.306Z,5.10
2018-05-17T20:00:15.875Z,5.55
2018-05-17T20:02:43.455Z,5.28
2018-05-17T20:05:11.071Z,4.72
2018-05-17T20:07:38.678Z,5.32
2018-05-17T20:10:07.056Z,5.28
2018-05-17T20:12:34.637Z,7.20
2018-05-17T20:15:02.971Z,5.40
2018-05-17T20:17:30.559Z,5.75
2018-05-17T20:19:58.190Z,4.97
2018-05-17T20:22:25.859Z,5.35
2018-05-17T20:24:53.515Z,5.53
2018-05-17T20:27:21.076Z,5.80
2018-05-17T20:29:48.640Z,5.93
2018-05-17T20:32:16.168Z,5.80
2018-05-17T20:34:43.791Z,5.40
2018-05-17T20:37:11.323Z,6.12
2018-05-17T20:39:38.861Z,5.60
2018-05-17T20:42:06.468Z,6.28
2018-05-17T21:58:19.854Z,6.50
2018-05-17T22:00:47.447Z,4.75
2018-05-17T22:03:14.938Z,6.55
2018-05-17T22:08:10.415Z,6.50
2018-05-17T22:10:38.074Z,5.80
2018-05-17T23:39:08.623Z,5.70
2018-05-17T23:41:36.148Z,5.15
2018-05-17T23:44:03.677Z,7.05
2018-05-17T23:46:31.204Z,5.65
2018-05-17T23:48:58.814Z,4.93
2018-05-17T23:51:26.463Z,5.10
2018-05-17T23:53:54.043Z,4.90
2018-05-17T23:56:21.632Z,6.03
